sensor_id;sensor_type;location;lat;lon;timestamp;pressure;altitude;pressure_sealevel;temperature;humidity
22647;BME280;11490;42.726;23.268;2023-05-12T00:01:21;95459.56;;;9.53;95.40
22647;BME280;11490;42.726;23.268;2023-05-12T00:03:46;95462.53;;;9.45;95.12
22647;BME280;11490;42.726;23.268;2023-05-12T00:06:12;95463.94;;;9.48;95.27
22647;BME280;11490;42.726;23.268;2023-05-12T00:08:37;95472.63;;;9.25;95.28
22647;BME280;11490;42.726;23.268;2023-05-12T00:11:03;95468.91;;;9.44;96.56
22647;BME280;11490;42.726;23.268;2023-05-12T00:13:28;95464.50;;;9.20;95.10
22647;BME280;11490;42.726;23.268;2023-05-12T00:15:54;95460.84;;;9.14;95.63
22647;BME280;11490;42.726;23.268;2023-05-12T00:18:21;95458.78;;;9.16;95.54
22647;BME280;11490;42.726;23.268;2023-05-12T00:20:46;95471.44;;;9.21;95.60
22647;BME280;11490;42.726;23.268;2023-05-12T00:23:15;95458.78;;;9.16;94.68
22647;BME280;11490;42.726;23.268;2023-05-12T00:25:41;95438.91;;;9.01;93.83
22647;BME280;11490;42.726;23.268;2023-05-12T00:28:06;95460.94;;;9.08;95.58
22647;BME280;11490;42.726;23.268;2023-05-12T00:30:32;95452.97;;;9.26;96.50
22647;BME280;11490;42.726;23.268;2023-05-12T00:32:57;95458.28;;;9.08;93.58
22647;BME280;11490;42.726;23.268;2023-05-12T00:35:23;95451.09;;;9.08;94.77
22647;BME280;11490;42.726;23.268;2023-05-12T00:37:48;95473.72;;;9.17;96.09
22647;BME280;11490;42.726;23.268;2023-05-12T00:40:13;95444.38;;;9.24;95.41
22647;BME280;11490;42.726;23.268;2023-05-12T00:42:39;95478.66;;;9.14;96.19
22647;BME280;11490;42.726;23.268;2023-05-12T00:45:05;95459.59;;;8.99;97.91
22647;BME280;11490;42.726;23.268;2023-05-12T00:47:30;95473.81;;;9.11;96.49
22647;BME280;11490;42.726;23.268;2023-05-12T00:49:56;95477.19;;;9.00;95.79
22647;BME280;11490;42.726;23.268;2023-05-12T00:52:22;95472.78;;;9.12;97.60
22647;BME280;11490;42.726;23.268;2023-05-12T00:54:47;95475.41;;;9.30;97.09
22647;BME280;11490;42.726;23.268;2023-05-12T00:57:13;95465.97;;;8.98;96.54
22647;BME280;11490;42.726;23.268;2023-05-12T00:59:39;95477.13;;;8.88;97.25
22647;BME280;11490;42.726;23.268;2023-05-12T01:02:04;95443.06;;;8.78;98.98
22647;BME280;11490;42.726;23.268;2023-05-12T01:04:33;95485.63;;;8.97;99.66
22647;BME280;11490;42.726;23.268;2023-05-12T01:07:05;95466.56;;;8.81;99.79
22647;BME280;11490;42.726;23.268;2023-05-12T01:09:34;95468.03;;;8.96;99.63
22647;BME280;11490;42.726;23.268;2023-05-12T01:11:59;95477.44;;;8.55;100.00
22647;BME280;11490;42.726;23.268;2023-05-12T01:14:25;95467.88;;;8.72;100.00
22647;BME280;11490;42.726;23.268;2023-05-12T01:16:53;95487.38;;;8.84;100.00
22647;BME280;11490;42.726;23.268;2023-05-12T01:19:40;95491.81;;;8.91;100.00
22647;BME280;11490;42.726;23.268;2023-05-12T01:22:06;95478.38;;;8.85;100.00
22647;BME280;11490;42.726;23.268;2023-05-12T01:24:35;95488.81;;;9.05;100.00
22647;BME280;11490;42.726;23.268;2023-05-12T01:27:06;95459.59;;;8.80;100.00
22647;BME280;11490;42.726;23.268;2023-05-12T01:29:33;95484.75;;;9.03;100.00
22647;BME280;11490;42.726;23.268;2023-05-12T01:32:00;95486.81;;;9.01;100.00
22647;BME280;11490;42.726;23.268;2023-05-12T01:34:25;95494.59;;;8.77;100.00
22647;BME280;11490;42.726;23.268;2023-05-12T01:36:51;95484.91;;;8.40;100.00
22647;BME280;11490;42.726;23.268;2023-05-12T01:39:19;95483.78;;;8.54;100.00
22647;BME280;11490;42.726;23.268;2023-05-12T01:41:45;95485.34;;;8.37;100.00
22647;BME280;11490;42.726;23.268;2023-05-12T01:44:10;95480.69;;;8.57;100.00
22647;BME280;11490;42.726;23.268;2023-05-12T01:46:35;95444.97;;;8.22;100.00
22647;BME280;11490;42.726;23.268;2023-05-12T01:49:01;95481.75;;;8.25;100.00
22647;BME280;11490;42.726;23.268;2023-05-12T01:51:26;95500.09;;;8.33;100.00
22647;BME280;11490;42.726;23.268;2023-05-12T01:53:51;95498.88;;;8.29;100.00
22647;BME280;11490;42.726;23.268;2023-05-12T01:56:17;95488.88;;;7.99;100.00
22647;BME280;11490;42.726;23.268;2023-05-12T01:58:42;95481.41;;;8.15;100.00
22647;BME280;11490;42.726;23.268;2023-05-12T02:01:08;95491.97;;;8.21;100.00
22647;BME280;11490;42.726;23.268;2023-05-12T02:03:33;95481.66;;;8.06;100.00
22647;BME280;11490;42.726;23.268;2023-05-12T02:05:58;95488.19;;;8.42;100.00
22647;BME280;11490;42.726;23.268;2023-05-12T02:08:24;95483.56;;;7.99;100.00
22647;BME280;11490;42.726;23.268;2023-05-12T02:10:49;95480.22;;;8.10;100.00
22647;BME280;11490;42.726;23.268;2023-05-12T02:13:15;95489.47;;;8.33;100.00
22647;BME280;11490;42.726;23.268;2023-05-12T02:15:40;95476.34;;;8.06;100.00
22647;BME280;11490;42.726;23.268;2023-05-12T02:18:05;95465.16;;;7.98;100.00
22647;BME280;11490;42.726;23.268;2023-05-12T02:20:31;95495.75;;;8.07;100.00
22647;BME280;11490;42.726;23.268;2023-05-12T02:22:57;95495.28;;;8.17;100.00
22647;BME280;11490;42.726;23.268;2023-05-12T02:25:22;95481.97;;;7.92;100.00
22647;BME280;11490;42.726;23.268;2023-05-12T02:27:48;95443.94;;;7.28;100.00
22647;BME280;11490;42.726;23.268;2023-05-12T02:30:13;95481.69;;;7.68;100.00
22647;BME280;11490;42.726;23.268;2023-05-12T02:32:39;95486.03;;;7.63;100.00
22647;BME280;11490;42.726;23.268;2023-05-12T02:35:05;95483.13;;;7.71;100.00
22647;BME280;11490;42.726;23.268;2023-05-12T02:37:31;95482.09;;;7.72;100.00
22647;BME280;11490;42.726;23.268;2023-05-12T02:39:57;95472.34;;;7.66;100.00
22647;BME280;11490;42.726;23.268;2023-05-12T02:42:22;95480.97;;;7.55;100.00
22647;BME280;11490;42.726;23.268;2023-05-12T02:44:47;95476.06;;;7.58;100.00
22647;BME280;11490;42.726;23.268;2023-05-12T02:47:13;95487.41;;;7.72;100.00
22647;BME280;11490;42.726;23.268;2023-05-12T02:49:38;95487.22;;;7.22;100.00
22647;BME280;11490;42.726;23.268;2023-05-12T02:52:04;95479.88;;;7.24;100.00
22647;BME280;11490;42.726;23.268;2023-05-12T02:54:29;95461.84;;;7.40;100.00
22647;BME280;11490;42.726;23.268;2023-05-12T02:56:55;95485.16;;;7.69;100.00
22647;BME280;11490;42.726;23.268;2023-05-12T02:59:22;95475.06;;;7.84;100.00
22647;BME280;11490;42.726;23.268;2023-05-12T03:01:50;95504.03;;;7.92;100.00
22647;BME280;11490;42.726;23.268;2023-05-12T03:04:16;95488.88;;;7.99;100.00
22647;BME280;11490;42.726;23.268;2023-05-12T03:06:41;95470.78;;;7.45;100.00
22647;BME280;11490;42.726;23.268;2023-05-12T03:09:07;95491.88;;;7.78;100.00
22647;BME280;11490;42.726;23.268;2023-05-12T03:11:32;95496.88;;;7.55;100.00
22647;BME280;11490;42.726;23.268;2023-05-12T03:13:57;95492.63;;;7.85;100.00
22647;BME280;11490;42.726;23.268;2023-05-12T03:16:23;95479.41;;;7.41;100.00
22647;BME280;11490;42.726;23.268;2023-05-12T03:18:48;95488.75;;;7.50;100.00
22647;BME280;11490;42.726;23.268;2023-05-12T03:21:13;95488.78;;;7.43;100.00
22647;BME280;11490;42.726;23.268;2023-05-12T03:23:39;95507.72;;;7.53;100.00
22647;BME280;11490;42.726;23.268;2023-05-12T03:26:05;95482.56;;;7.62;100.00
22647;BME280;11490;42.726;23.268;2023-05-12T03:28:31;95494.88;;;7.44;100.00
22647;BME280;11490;42.726;23.268;2023-05-12T03:30:56;95496.41;;;7.71;100.00
22647;BME280;11490;42.726;23.268;2023-05-12T03:33:22;95510.97;;;7.93;100.00
22647;BME280;11490;42.726;23.268;2023-05-12T03:35:47;95506.25;;;7.64;100.00
22647;BME280;11490;42.726;23.268;2023-05-12T03:38:12;95504.56;;;7.69;100.00
22647;BME280;11490;42.726;23.268;2023-05-12T03:40:38;95504.19;;;7.66;100.00
22647;BME280;11490;42.726;23.268;2023-05-12T03:43:03;95496.31;;;7.84;100.00
22647;BME280;11490;42.726;23.268;2023-05-12T03:45:28;95509.84;;;7.76;100.00
22647;BME280;11490;42.726;23.268;2023-05-12T03:47:54;95495.81;;;8.00;100.00
22647;BME280;11490;42.726;23.268;2023-05-12T03:50:19;95518.50;;;7.65;100.00
22647;BME280;11490;42.726;23.268;2023-05-12T03:52:45;95508.97;;;7.51;100.00
22647;BME280;11490;42.726;23.268;2023-05-12T03:55:10;95514.81;;;7.59;100.00
22647;BME280;11490;42.726;23.268;2023-05-12T03:57:35;95500.06;;;7.70;100.00
22647;BME280;11490;42.726;23.268;2023-05-12T04:00:03;95517.19;;;7.81;100.00
22647;BME280;11490;42.726;23.268;2023-05-12T04:02:29;95526.06;;;7.99;100.00
22647;BME280;11490;42.726;23.268;2023-05-12T04:04:54;95514.47;;;7.49;100.00
22647;BME280;11490;42.726;23.268;2023-05-12T04:07:20;95508.44;;;7.67;100.00
22647;BME280;11490;42.726;23.268;2023-05-12T04:09:45;95528.19;;;7.84;100.00
22647;BME280;11490;42.726;23.268;2023-05-12T04:12:11;95525.78;;;7.76;100.00
22647;BME280;11490;42.726;23.268;2023-05-12T04:14:36;95516.69;;;7.90;100.00
22647;BME280;11490;42.726;23.268;2023-05-12T04:17:03;95527.25;;;8.03;100.00
22647;BME280;11490;42.726;23.268;2023-05-12T04:19:28;95515.88;;;7.96;100.00
22647;BME280;11490;42.726;23.268;2023-05-12T04:21:54;95522.47;;;8.19;100.00
22647;BME280;11490;42.726;23.268;2023-05-12T04:24:19;95535.81;;;8.05;100.00
22647;BME280;11490;42.726;23.268;2023-05-12T04:26:44;95498.03;;;7.72;100.00
22647;BME280;11490;42.726;23.268;2023-05-12T04:29:10;95512.19;;;7.97;100.00
22647;BME280;11490;42.726;23.268;2023-05-12T04:31:35;95530.53;;;7.99;100.00
22647;BME280;11490;42.726;23.268;2023-05-12T04:34:00;95512.09;;;7.79;100.00
22647;BME280;11490;42.726;23.268;2023-05-12T04:36:26;95512.09;;;8.10;100.00
22647;BME280;11490;42.726;23.268;2023-05-12T04:38:51;95527.41;;;7.77;100.00
22647;BME280;11490;42.726;23.268;2023-05-12T04:41:18;95521.59;;;7.93;100.00
22647;BME280;11490;42.726;23.268;2023-05-12T04:43:43;95526.19;;;8.11;100.00
22647;BME280;11490;42.726;23.268;2023-05-12T04:46:08;95539.19;;;8.26;100.00
22647;BME280;11490;42.726;23.268;2023-05-12T04:48:34;95517.25;;;8.37;100.00
22647;BME280;11490;42.726;23.268;2023-05-12T04:50:59;95526.06;;;8.31;100.00
22647;BME280;11490;42.726;23.268;2023-05-12T04:53:26;95523.50;;;8.18;100.00
22647;BME280;11490;42.726;23.268;2023-05-12T04:55:51;95521.34;;;8.01;100.00
22647;BME280;11490;42.726;23.268;2023-05-12T04:58:17;95518.09;;;8.31;100.00
22647;BME280;11490;42.726;23.268;2023-05-12T05:00:42;95516.53;;;8.17;100.00
22647;BME280;11490;42.726;23.268;2023-05-12T05:03:10;95531.81;;;7.96;100.00
22647;BME280;11490;42.726;23.268;2023-05-12T05:05:36;95511.06;;;8.11;100.00
22647;BME280;11490;42.726;23.268;2023-05-12T05:08:01;95538.41;;;8.19;100.00
22647;BME280;11490;42.726;23.268;2023-05-12T05:10:26;95528.03;;;8.10;100.00
22647;BME280;11490;42.726;23.268;2023-05-12T05:12:55;95527.34;;;8.22;100.00
22647;BME280;11490;42.726;23.268;2023-05-12T05:15:20;95544.31;;;8.21;100.00
22647;BME280;11490;42.726;23.268;2023-05-12T05:17:46;95522.78;;;8.29;100.00
22647;BME280;11490;42.726;23.268;2023-05-12T05:20:13;95535.03;;;7.98;100.00
22647;BME280;11490;42.726;23.268;2023-05-12T05:22:39;95532.13;;;8.06;100.00
22647;BME280;11490;42.726;23.268;2023-05-12T05:25:05;95513.78;;;7.98;100.00
22647;BME280;11490;42.726;23.268;2023-05-12T05:27:31;95532.75;;;8.08;100.00
22647;BME280;11490;42.726;23.268;2023-05-12T05:29:56;95529.16;;;8.28;100.00
22647;BME280;11490;42.726;23.268;2023-05-12T05:32:22;95539.56;;;7.91;100.00
22647;BME280;11490;42.726;23.268;2023-05-12T05:34:47;95548.94;;;8.00;100.00
22647;BME280;11490;42.726;23.268;2023-05-12T05:37:12;95545.75;;;7.85;100.00
22647;BME280;11490;42.726;23.268;2023-05-12T05:39:38;95544.47;;;7.94;100.00
22647;BME280;11490;42.726;23.268;2023-05-12T05:42:03;95540.28;;;8.11;100.00
22647;BME280;11490;42.726;23.268;2023-05-12T05:44:29;95557.31;;;8.29;100.00
22647;BME280;11490;42.726;23.268;2023-05-12T05:46:54;95526.41;;;8.41;100.00
22647;BME280;11490;42.726;23.268;2023-05-12T05:49:19;95535.81;;;8.43;100.00
22647;BME280;11490;42.726;23.268;2023-05-12T05:51:45;95564.50;;;8.60;100.00
22647;BME280;11490;42.726;23.268;2023-05-12T05:54:10;95548.03;;;8.51;100.00
22647;BME280;11490;42.726;23.268;2023-05-12T05:56:36;95555.00;;;8.70;100.00
22647;BME280;11490;42.726;23.268;2023-05-12T05:59:01;95547.19;;;8.75;100.00
22647;BME280;11490;42.726;23.268;2023-05-12T06:01:29;95564.41;;;8.73;100.00
22647;BME280;11490;42.726;23.268;2023-05-12T06:03:54;95541.63;;;8.59;100.00
22647;BME280;11490;42.726;23.268;2023-05-12T06:06:20;95527.03;;;8.43;100.00
22647;BME280;11490;42.726;23.268;2023-05-12T06:08:45;95536.06;;;8.29;100.00
22647;BME280;11490;42.726;23.268;2023-05-12T06:11:11;95527.53;;;8.58;100.00
22647;BME280;11490;42.726;23.268;2023-05-12T06:13:36;95566.41;;;8.77;100.00
22647;BME280;11490;42.726;23.268;2023-05-12T06:16:01;95569.88;;;8.53;100.00
22647;BME280;11490;42.726;23.268;2023-05-12T06:18:27;95556.16;;;8.56;100.00
22647;BME280;11490;42.726;23.268;2023-05-12T06:20:52;95565.84;;;8.44;100.00
22647;BME280;11490;42.726;23.268;2023-05-12T06:23:17;95563.41;;;8.67;100.00
22647;BME280;11490;42.726;23.268;2023-05-12T06:25:50;95534.75;;;8.51;100.00
22647;BME280;11490;42.726;23.268;2023-05-12T06:28:16;95571.50;;;8.54;100.00
22647;BME280;11490;42.726;23.268;2023-05-12T06:30:41;95546.00;;;8.71;100.00
22647;BME280;11490;42.726;23.268;2023-05-12T06:33:06;95546.97;;;9.02;100.00
22647;BME280;11490;42.726;23.268;2023-05-12T06:35:32;95546.06;;;9.08;100.00
22647;BME280;11490;42.726;23.268;2023-05-12T06:37:58;95583.22;;;9.21;100.00
22647;BME280;11490;42.726;23.268;2023-05-12T06:40:23;95577.44;;;9.24;100.00
22647;BME280;11490;42.726;23.268;2023-05-12T06:42:49;95586.63;;;9.46;100.00
22647;BME280;11490;42.726;23.268;2023-05-12T06:45:18;95595.06;;;9.61;100.00
22647;BME280;11490;42.726;23.268;2023-05-12T06:47:52;95552.84;;;9.29;100.00
22647;BME280;11490;42.726;23.268;2023-05-12T06:50:18;95544.03;;;9.28;100.00
22647;BME280;11490;42.726;23.268;2023-05-12T06:52:43;95569.75;;;9.52;100.00
22647;BME280;11490;42.726;23.268;2023-05-12T06:55:13;95594.19;;;9.49;100.00
22647;BME280;11490;42.726;23.268;2023-05-12T07:04:18;95577.75;;;9.71;100.00
22647;BME280;11490;42.726;23.268;2023-05-12T07:06:46;95569.31;;;9.55;100.00
22647;BME280;11490;42.726;23.268;2023-05-12T07:10:10;95538.19;;;9.56;100.00
22647;BME280;11490;42.726;23.268;2023-05-12T07:12:56;95514.78;;;9.28;100.00
22647;BME280;11490;42.726;23.268;2023-05-12T07:15:21;95565.91;;;9.30;100.00
22647;BME280;11490;42.726;23.268;2023-05-12T07:17:49;95576.13;;;9.33;100.00
22647;BME280;11490;42.726;23.268;2023-05-12T07:20:14;95565.41;;;9.40;100.00
22647;BME280;11490;42.726;23.268;2023-05-12T07:22:40;95571.53;;;9.40;100.00
22647;BME280;11490;42.726;23.268;2023-05-12T07:25:06;95578.84;;;9.45;100.00
22647;BME280;11490;42.726;23.268;2023-05-12T07:27:32;95575.56;;;9.49;100.00
22647;BME280;11490;42.726;23.268;2023-05-12T07:29:57;95589.38;;;9.58;100.00
22647;BME280;11490;42.726;23.268;2023-05-12T07:32:24;95567.19;;;9.82;100.00
22647;BME280;11490;42.726;23.268;2023-05-12T07:34:49;95587.38;;;9.90;100.00
22647;BME280;11490;42.726;23.268;2023-05-12T07:37:15;95558.00;;;9.78;100.00
22647;BME280;11490;42.726;23.268;2023-05-12T07:39:45;95568.16;;;9.51;100.00
22647;BME280;11490;42.726;23.268;2023-05-12T07:42:11;95598.63;;;9.74;100.00
22647;BME280;11490;42.726;23.268;2023-05-12T07:44:39;95599.06;;;9.71;100.00
22647;BME280;11490;42.726;23.268;2023-05-12T07:47:04;95586.34;;;9.91;100.00
22647;BME280;11490;42.726;23.268;2023-05-12T07:49:29;95585.28;;;9.92;100.00
22647;BME280;11490;42.726;23.268;2023-05-12T07:51:55;95555.41;;;9.90;100.00
22647;BME280;11490;42.726;23.268;2023-05-12T07:54:20;95580.03;;;9.85;99.67
22647;BME280;11490;42.726;23.268;2023-05-12T07:56:46;95582.78;;;9.97;100.00
22647;BME280;11490;42.726;23.268;2023-05-12T07:59:11;95558.06;;;9.90;100.00
22647;BME280;11490;42.726;23.268;2023-05-12T08:01:38;95549.78;;;9.80;100.00
22647;BME280;11490;42.726;23.268;2023-05-12T08:04:04;95567.75;;;9.84;100.00
22647;BME280;11490;42.726;23.268;2023-05-12T08:06:29;95545.78;;;9.71;100.00
22647;BME280;11490;42.726;23.268;2023-05-12T08:09:04;95576.09;;;10.06;100.00
22647;BME280;11490;42.726;23.268;2023-05-12T08:11:29;95554.97;;;10.53;100.00
22647;BME280;11490;42.726;23.268;2023-05-12T08:13:55;95574.00;;;10.68;98.92
22647;BME280;11490;42.726;23.268;2023-05-12T08:16:20;95592.94;;;11.01;98.84
22647;BME280;11490;42.726;23.268;2023-05-12T08:18:45;95587.25;;;10.33;95.69
22647;BME280;11490;42.726;23.268;2023-05-12T08:21:11;95577.66;;;10.44;96.20
22647;BME280;11490;42.726;23.268;2023-05-12T08:23:38;95574.94;;;10.85;97.18
22647;BME280;11490;42.726;23.268;2023-05-12T08:26:04;95581.94;;;11.09;95.93
22647;BME280;11490;42.726;23.268;2023-05-12T08:28:29;95599.56;;;10.87;93.85
22647;BME280;11490;42.726;23.268;2023-05-12T08:30:56;95578.09;;;10.94;93.56
22647;BME280;11490;42.726;23.268;2023-05-12T08:33:22;95566.84;;;11.27;94.14
22647;BME280;11490;42.726;23.268;2023-05-12T08:35:47;95559.19;;;10.95;91.76
22647;BME280;11490;42.726;23.268;2023-05-12T08:38:13;95589.16;;;11.21;93.09
22647;BME280;11490;42.726;23.268;2023-05-12T08:40:55;95570.25;;;11.22;93.06
22647;BME280;11490;42.726;23.268;2023-05-12T08:43:28;95567.66;;;11.04;90.37
22647;BME280;11490;42.726;23.268;2023-05-12T08:45:57;95573.13;;;11.21;90.78
22647;BME280;11490;42.726;23.268;2023-05-12T08:48:26;95585.91;;;11.07;91.26
22647;BME280;11490;42.726;23.268;2023-05-12T08:50:53;95594.69;;;11.54;95.16
22647;BME280;11490;42.726;23.268;2023-05-12T08:53:20;95575.44;;;11.75;92.46
22647;BME280;11490;42.726;23.268;2023-05-12T08:55:49;95582.16;;;11.54;90.01
22647;BME280;11490;42.726;23.268;2023-05-12T08:58:15;95591.66;;;11.85;91.27
22647;BME280;11490;42.726;23.268;2023-05-12T09:00:42;95595.03;;;11.69;88.15
22647;BME280;11490;42.726;23.268;2023-05-12T09:03:11;95589.94;;;11.79;88.76
22647;BME280;11490;42.726;23.268;2023-05-12T09:05:38;95593.53;;;11.73;88.22
22647;BME280;11490;42.726;23.268;2023-05-12T09:08:05;95588.81;;;12.04;88.65
22647;BME280;11490;42.726;23.268;2023-05-12T09:10:30;95576.00;;;11.66;85.77
22647;BME280;11490;42.726;23.268;2023-05-12T09:15:50;95583.13;;;11.37;89.02
22647;BME280;11490;42.726;23.268;2023-05-12T09:18:17;95586.00;;;11.82;87.85
22647;BME280;11490;42.726;23.268;2023-05-12T09:20:44;95562.09;;;11.29;85.81
22647;BME280;11490;42.726;23.268;2023-05-12T09:23:16;95576.13;;;11.59;87.53
22647;BME280;11490;42.726;23.268;2023-05-12T09:25:42;95576.78;;;11.89;87.50
22647;BME280;11490;42.726;23.268;2023-05-12T09:28:07;95552.69;;;12.01;86.89
22647;BME280;11490;42.726;23.268;2023-05-12T09:30:33;95573.00;;;12.14;83.58
22647;BME280;11490;42.726;23.268;2023-05-12T09:33:06;95557.97;;;12.41;82.53
22647;BME280;11490;42.726;23.268;2023-05-12T09:35:40;95573.53;;;11.87;82.65
22647;BME280;11490;42.726;23.268;2023-05-12T09:38:07;95571.72;;;11.76;83.12
22647;BME280;11490;42.726;23.268;2023-05-12T09:40:32;95569.69;;;11.95;84.26
22647;BME280;11490;42.726;23.268;2023-05-12T09:42:58;95576.13;;;12.39;85.30
22647;BME280;11490;42.726;23.268;2023-05-12T09:45:23;95571.94;;;12.43;83.63
22647;BME280;11490;42.726;23.268;2023-05-12T09:47:48;95565.66;;;12.21;82.55
22647;BME280;11490;42.726;23.268;2023-05-12T09:50:14;95571.66;;;12.28;82.80
22647;BME280;11490;42.726;23.268;2023-05-12T09:52:39;95570.66;;;12.46;82.26
22647;BME280;11490;42.726;23.268;2023-05-12T09:55:06;95574.13;;;12.91;83.29
22647;BME280;11490;42.726;23.268;2023-05-12T09:57:35;95579.31;;;12.98;81.44
22647;BME280;11490;42.726;23.268;2023-05-12T10:00:02;95577.47;;;12.70;81.00
22647;BME280;11490;42.726;23.268;2023-05-12T10:02:28;95567.59;;;12.87;81.60
22647;BME280;11490;42.726;23.268;2023-05-12T10:04:57;95554.81;;;13.06;80.44
22647;BME280;11490;42.726;23.268;2023-05-12T10:07:26;95562.41;;;12.81;78.40
22647;BME280;11490;42.726;23.268;2023-05-12T10:09:54;95566.88;;;13.08;78.70
22647;BME280;11490;42.726;23.268;2023-05-12T10:12:20;95564.66;;;12.55;79.25
22647;BME280;11490;42.726;23.268;2023-05-12T10:14:46;95545.97;;;13.22;82.80
22647;BME280;11490;42.726;23.268;2023-05-12T10:17:13;95543.22;;;13.56;79.15
22647;BME280;11490;42.726;23.268;2023-05-12T10:19:40;95555.13;;;13.26;77.35
22647;BME280;11490;42.726;23.268;2023-05-12T10:22:09;95553.03;;;13.88;78.24
22647;BME280;11490;42.726;23.268;2023-05-12T10:24:35;95554.50;;;14.23;78.76
22647;BME280;11490;42.726;23.268;2023-05-12T10:27:03;95545.97;;;14.04;75.18
22647;BME280;11490;42.726;23.268;2023-05-12T10:29:30;95532.16;;;14.17;78.38
22647;BME280;11490;42.726;23.268;2023-05-12T10:31:57;95534.97;;;14.27;77.23
22647;BME280;11490;42.726;23.268;2023-05-12T10:34:31;95550.31;;;14.10;75.56
22647;BME280;11490;42.726;23.268;2023-05-12T10:36:57;95519.06;;;14.21;76.56
22647;BME280;11490;42.726;23.268;2023-05-12T10:39:27;95546.94;;;14.42;76.13
22647;BME280;11490;42.726;23.268;2023-05-12T10:42:06;95551.91;;;14.55;75.77
22647;BME280;11490;42.726;23.268;2023-05-12T10:44:32;95533.34;;;14.26;74.47
22647;BME280;11490;42.726;23.268;2023-05-12T10:46:58;95543.41;;;14.63;74.10
22647;BME280;11490;42.726;23.268;2023-05-12T10:49:32;95541.47;;;14.32;75.28
22647;BME280;11490;42.726;23.268;2023-05-12T10:51:59;95542.19;;;14.49;74.02
22647;BME280;11490;42.726;23.268;2023-05-12T10:54:25;95541.47;;;14.58;73.79
22647;BME280;11490;42.726;23.268;2023-05-12T10:56:51;95537.94;;;14.53;73.31
22647;BME280;11490;42.726;23.268;2023-05-12T10:59:18;95533.66;;;14.84;75.39
22647;BME280;11490;42.726;23.268;2023-05-12T11:02:14;95544.84;;;15.08;73.72
22647;BME280;11490;42.726;23.268;2023-05-12T11:07:12;95534.03;;;14.97;74.22
22647;BME280;11490;42.726;23.268;2023-05-12T11:09:39;95541.69;;;15.16;71.91
22647;BME280;11490;42.726;23.268;2023-05-12T11:12:06;95543.78;;;15.09;72.28
22647;BME280;11490;42.726;23.268;2023-05-12T11:14:36;95527.63;;;15.03;74.68
22647;BME280;11490;42.726;23.268;2023-05-12T11:17:03;95535.13;;;15.01;72.45
22647;BME280;11490;42.726;23.268;2023-05-12T11:19:29;95551.09;;;15.18;72.44
22647;BME280;11490;42.726;23.268;2023-05-12T11:21:54;95533.44;;;14.90;71.09
22647;BME280;11490;42.726;23.268;2023-05-12T11:24:20;95539.91;;;14.94;69.97
22647;BME280;11490;42.726;23.268;2023-05-12T11:26:47;95525.69;;;14.62;69.47
22647;BME280;11490;42.726;23.268;2023-05-12T11:29:18;95550.97;;;14.71;70.00
22647;BME280;11490;42.726;23.268;2023-05-12T11:31:48;95552.53;;;14.62;71.74
22647;BME280;11490;42.726;23.268;2023-05-12T11:34:14;95544.25;;;14.42;71.89
22647;BME280;11490;42.726;23.268;2023-05-12T11:36:41;95546.63;;;14.65;71.08
22647;BME280;11490;42.726;23.268;2023-05-12T11:39:20;95537.06;;;14.25;70.86
22647;BME280;11490;42.726;23.268;2023-05-12T11:41:47;95551.91;;;14.55;71.06
22647;BME280;11490;42.726;23.268;2023-05-12T11:46:40;95539.53;;;14.81;68.47
22647;BME280;11490;42.726;23.268;2023-05-12T11:49:09;95542.06;;;14.66;69.53
22647;BME280;11490;42.726;23.268;2023-05-12T11:51:41;95531.16;;;14.45;70.43
22647;BME280;11490;42.726;23.268;2023-05-12T11:54:07;95540.63;;;14.53;69.40
22647;BME280;11490;42.726;23.268;2023-05-12T11:56:33;95545.59;;;14.71;69.83
22647;BME280;11490;42.726;23.268;2023-05-12T11:58:59;95550.47;;;14.74;69.55
22647;BME280;11490;42.726;23.268;2023-05-12T12:01:25;95539.03;;;14.57;69.76
22647;BME280;11490;42.726;23.268;2023-05-12T12:03:52;95535.50;;;14.78;69.71
22647;BME280;11490;42.726;23.268;2023-05-12T12:06:20;95542.38;;;14.69;66.21
22647;BME280;11490;42.726;23.268;2023-05-12T12:08:52;95542.59;;;14.62;66.25
22647;BME280;11490;42.726;23.268;2023-05-12T12:11:20;95538.53;;;14.60;68.44
22647;BME280;11490;42.726;23.268;2023-05-12T12:13:53;95544.59;;;14.77;69.02
22647;BME280;11490;42.726;23.268;2023-05-12T12:16:27;95542.03;;;14.92;69.77
22647;BME280;11490;42.726;23.268;2023-05-12T12:18:53;95549.06;;;14.98;69.43
22647;BME280;11490;42.726;23.268;2023-05-12T12:21:21;95520.91;;;14.69;68.36
22647;BME280;11490;42.726;23.268;2023-05-12T12:23:48;95553.03;;;14.59;69.45
22647;BME280;11490;42.726;23.268;2023-05-12T12:26:14;95527.19;;;14.53;70.05
22647;BME280;11490;42.726;23.268;2023-05-12T12:28:42;95527.22;;;14.58;70.55
22647;BME280;11490;42.726;23.268;2023-05-12T12:31:07;95552.59;;;14.72;71.64
22647;BME280;11490;42.726;23.268;2023-05-12T12:33:33;95534.69;;;14.51;70.02
22647;BME280;11490;42.726;23.268;2023-05-12T12:35:58;95511.91;;;14.53;71.59
22647;BME280;11490;42.726;23.268;2023-05-12T12:38:26;95527.81;;;14.60;70.25
22647;BME280;11490;42.726;23.268;2023-05-12T12:40:52;95533.38;;;14.53;71.76
22647;BME280;11490;42.726;23.268;2023-05-12T12:43:19;95544.94;;;14.54;70.15
22647;BME280;11490;42.726;23.268;2023-05-12T12:45:48;95508.88;;;14.45;71.92
22647;BME280;11490;42.726;23.268;2023-05-12T12:48:15;95529.72;;;14.64;70.64
22647;BME280;11490;42.726;23.268;2023-05-12T12:50:42;95550.19;;;14.71;70.37
22647;BME280;11490;42.726;23.268;2023-05-12T12:53:08;95528.56;;;14.34;70.11
22647;BME280;11490;42.726;23.268;2023-05-12T12:55:34;95517.84;;;14.34;69.05
22647;BME280;11490;42.726;23.268;2023-05-12T12:57:59;95544.41;;;14.57;69.80
22647;BME280;11490;42.726;23.268;2023-05-12T13:00:25;95533.94;;;14.34;70.07
22647;BME280;11490;42.726;23.268;2023-05-12T13:02:51;95525.66;;;14.35;71.53